Time;durP1;ratioP1;P1;durP2;ratioP2;P2;SDS_P1;SDS_P2;PMS_P1;PMS_P2;Temp;Humidity;BMP_temperature;BMP_pressure;BME280_temperature;BME280_humidity;BME280_pressure;Samples;Min_cycle;Max_cycle;Signal;HPM_P1;HPM_P2
2022/02/09 00:05:11;;;;;;;2.50;0.80;;;8.90;99.90;;;;;;6150821;23;20021;-83
2022/02/09 00:07:52;;;;;;;2.22;0.80;;;8.90;99.90;;;;;;6126355;23;20001;-82
2022/02/09 00:10:18;;;;;;;2.15;0.70;;;8.90;99.90;;;;;;6126676;23;20021;-83
2022/02/09 00:12:56;;;;;;;2.55;0.60;;;8.90;99.90;;;;;;6151360;23;20374;-83
2022/02/09 00:15:48;;;;;;;2.67;0.60;;;8.90;99.90;;;;;;6126769;23;20363;-82
2022/02/09 00:18:26;;;;;;;1.80;0.80;;;8.90;99.90;;;;;;6132684;23;20085;-83
2022/02/09 00:21:18;;;;;;;3.20;0.70;;;8.80;99.90;;;;;;6150759;23;20085;-82
2022/02/09 00:34:35;;;;;;;1.55;0.60;;;8.90;99.90;;;;;;6151371;23;20006;-82
2022/02/09 00:37:20;;;;;;;1.13;0.50;;;8.90;99.90;;;;;;6128261;23;20002;-83
2022/02/09 00:40:08;;;;;;;3.50;0.65;;;8.90;99.90;;;;;;6127829;23;20013;-82
2022/02/09 00:59:18;;;;;;;1.95;0.70;;;9.00;99.90;;;;;;6152458;23;20002;-84
2022/02/09 01:56:17;;;;;;;2.60;1.20;;;8.80;99.90;;;;;;6152603;23;20020;-85
2022/02/09 01:58:44;;;;;;;2.20;1.20;;;8.90;99.90;;;;;;6127638;23;20014;-87
2022/02/09 02:01:10;;;;;;;4.28;1.40;;;8.80;99.90;;;;;;6127060;23;20013;-83
2022/02/09 02:03:36;;;;;;;2.72;1.55;;;8.80;99.90;;;;;;6152303;23;20025;-83
2022/02/09 02:06:01;;;;;;;2.60;1.15;;;8.80;99.90;;;;;;6127706;23;20002;-83
2022/02/09 02:08:29;;;;;;;3.85;2.58;;;8.80;99.90;;;;;;6127909;23;20033;-83
2022/02/09 02:11:06;;;;;;;2.85;2.28;;;8.80;99.90;;;;;;6152179;23;20016;-83
2022/02/09 02:19:07;;;;;;;2.70;1.67;;;8.80;99.90;;;;;;6152183;23;20009;-83
2022/02/09 02:24:33;;;;;;;2.63;1.48;;;8.80;99.90;;;;;;6151884;23;20083;-83
2022/02/09 03:12:40;;;;;;;2.22;0.60;;;8.70;99.90;;;;;;6152296;23;20257;-83
2022/02/09 03:15:34;;;;;;;1.40;0.60;;;8.70;99.90;;;;;;6151749;23;20207;-83
2022/02/09 03:23:45;;;;;;;1.67;0.60;;;8.70;99.90;;;;;;6152633;23;20023;-83
2022/02/09 03:42:20;;;;;;;1.38;0.40;;;8.70;99.90;;;;;;6126431;23;20013;-83
2022/02/09 03:50:31;;;;;;;1.10;0.50;;;8.70;99.90;;;;;;6126575;23;20029;-83
2022/02/09 03:55:42;;;;;;;2.30;0.68;;;8.70;99.90;;;;;;6126833;23;20040;-84
2022/02/09 03:58:09;;;;;;;1.50;0.75;;;8.70;99.90;;;;;;6101951;23;20009;-83
2022/02/09 04:00:39;;;;;;;2.70;1.20;;;8.70;99.90;;;;;;6152895;23;20076;-82
2022/02/09 04:03:09;;;;;;;2.88;1.48;;;8.60;99.90;;;;;;6127555;23;20010;-84
2022/02/09 04:05:35;;;;;;;2.22;1.23;;;8.70;99.90;;;;;;6102078;23;20017;-83
2022/02/09 04:08:01;;;;;;;2.05;1.30;;;8.60;99.90;;;;;;6102741;23;20457;-82
2022/02/09 04:10:36;;;;;;;2.13;1.02;;;8.60;99.90;;;;;;6103459;23;20040;-83
2022/02/09 04:18:21;;;;;;;3.33;1.10;;;8.60;99.90;;;;;;6128571;23;20092;-83
2022/02/09 04:37:15;;;;;;;2.97;1.92;;;8.40;99.90;;;;;;6154401;23;20017;-83
2022/02/09 04:39:56;;;;;;;3.10;1.98;;;8.40;99.90;;;;;;6127830;23;20028;-82
2022/02/09 04:50:27;;;;;;;3.42;2.70;;;8.30;99.90;;;;;;6153013;23;20014;-82
2022/02/09 04:53:18;;;;;;;5.03;4.10;;;8.30;99.90;;;;;;6128299;23;20010;-82
2022/02/09 04:56:03;;;;;;;5.10;4.60;;;8.20;99.90;;;;;;6150731;23;20006;-82
2022/02/09 05:18:22;;;;;;;3.53;1.85;;;8.20;99.90;;;;;;6068137;23;20011;-82
2022/02/09 05:23:36;;;;;;;2.80;1.80;;;8.20;99.90;;;;;;6068013;23;20262;-82
2022/02/09 05:26:20;;;;;;;3.15;2.05;;;8.20;99.90;;;;;;6068509;23;20022;-82
2022/02/09 05:28:46;;;;;;;3.20;1.90;;;8.20;99.90;;;;;;6068092;23;20014;-83
2022/02/09 05:31:12;;;;;;;2.58;2.05;;;8.20;99.90;;;;;;6068081;23;20081;-82
2022/02/09 05:33:39;;;;;;;2.83;2.28;;;8.20;99.90;;;;;;6091919;23;20066;-82
2022/02/09 05:36:05;;;;;;;3.15;2.10;;;8.20;99.90;;;;;;6021639;23;20107;-82
2022/02/09 05:38:31;;;;;;;3.22;2.35;;;8.20;99.90;;;;;;6066707;23;20045;-81
2022/02/09 05:40:57;;;;;;;2.65;1.33;;;8.20;99.90;;;;;;6097313;23;20447;-82
2022/02/09 05:43:25;;;;;;;2.60;2.00;;;8.20;99.90;;;;;;6151772;23;20013;-81
2022/02/09 05:46:42;;;;;;;3.03;2.17;;;8.20;99.90;;;;;;6127442;23;20014;-81
2022/02/09 05:51:44;;;;;;;2.92;2.17;;;8.10;99.90;;;;;;6154059;23;20005;-82
2022/02/09 05:56:44;;;;;;;3.33;1.55;;;8.10;99.90;;;;;;6153265;23;19912;-80
2022/02/09 06:01:36;;;;;;;4.07;2.85;;;8.10;99.90;;;;;;6153191;23;20077;-81
2022/02/09 06:04:02;;;;;;;3.88;3.45;;;8.10;99.90;;;;;;6151855;23;20023;-80
2022/02/09 06:06:28;;;;;;;4.95;4.43;;;8.10;99.90;;;;;;6151667;23;20505;-80
2022/02/09 06:08:55;;;;;;;5.25;4.75;;;8.10;99.90;;;;;;6126254;23;20029;-81
2022/02/09 06:11:32;;;;;;;5.07;4.53;;;8.10;99.90;;;;;;6152084;23;20013;-80
2022/02/09 06:14:37;;;;;;;5.78;4.43;;;8.10;99.90;;;;;;6126886;23;20036;-80
2022/02/09 06:19:53;;;;;;;3.95;3.58;;;8.00;99.90;;;;;;6151920;23;20459;-80
2022/02/09 06:22:20;;;;;;;2.90;2.22;;;8.00;99.90;;;;;;6151044;23;20009;-80
2022/02/09 06:24:46;;;;;;;4.28;2.28;;;8.00;99.90;;;;;;6151227;23;20013;-80
2022/02/09 06:27:13;;;;;;;4.68;3.97;;;8.00;99.90;;;;;;6151404;23;20001;-80
2022/02/09 06:29:44;;;;;;;5.20;3.45;;;8.10;99.90;;;;;;6150689;23;20415;-80
2022/02/09 06:32:10;;;;;;;5.28;4.43;;;8.10;99.90;;;;;;6125033;23;20009;-80
2022/02/09 06:34:36;;;;;;;4.03;3.30;;;8.10;99.90;;;;;;6126345;23;20020;-81
2022/02/09 06:37:13;;;;;;;4.82;2.40;;;8.10;99.90;;;;;;6152605;23;20117;-80
2022/02/09 06:39:39;;;;;;;3.05;2.25;;;8.00;99.90;;;;;;6126190;23;20017;-80
2022/02/09 06:42:05;;;;;;;3.70;2.50;;;8.00;99.90;;;;;;6151854;23;20006;-80
2022/02/09 06:44:32;;;;;;;2.67;1.52;;;8.00;99.90;;;;;;6149965;23;20052;-80
2022/02/09 06:46:58;;;;;;;3.08;1.75;;;8.00;99.90;;;;;;6126776;23;20084;-81
2022/02/09 06:49:24;;;;;;;2.97;2.67;;;8.00;99.90;;;;;;6151330;23;20045;-80
2022/02/09 06:51:49;;;;;;;3.28;2.83;;;8.00;99.90;;;;;;6126221;23;20006;-82
2022/02/09 06:54:23;;;;;;;2.85;2.53;;;8.00;99.90;;;;;;6153025;23;20304;-83
2022/02/09 06:59:32;;;;;;;2.78;1.67;;;8.00;99.90;;;;;;6154021;23;20009;-83
2022/02/09 07:02:02;;;;;;;4.13;3.25;;;8.00;99.90;;;;;;6126606;23;20040;-83
2022/02/09 07:04:28;;;;;;;3.00;1.95;;;8.00;99.90;;;;;;6102497;23;20025;-83
2022/02/09 07:06:53;;;;;;;2.55;2.20;;;8.00;99.90;;;;;;6124334;23;20403;-83
2022/02/09 07:09:19;;;;;;;3.33;2.47;;;8.00;99.90;;;;;;6150276;23;20493;-88
2022/02/09 07:11:44;;;;;;;2.58;2.08;;;8.00;99.90;;;;;;6126849;23;20454;-85
2022/02/09 07:14:10;;;;;;;2.33;1.70;;;8.00;99.90;;;;;;6151718;23;20144;-84
2022/02/09 07:16:37;;;;;;;3.35;2.38;;;8.00;99.90;;;;;;6151779;23;20013;-83
2022/02/09 07:19:07;;;;;;;2.80;2.00;;;8.00;99.90;;;;;;6150981;23;20013;-83
2022/02/09 07:21:33;;;;;;;2.83;2.08;;;8.00;99.90;;;;;;6150434;23;20426;-84
2022/02/09 07:24:01;;;;;;;2.40;1.90;;;8.00;99.90;;;;;;6127216;23;20014;-84
2022/02/09 07:26:30;;;;;;;4.03;2.60;;;7.90;99.90;;;;;;6127571;23;20033;-83
2022/02/09 07:28:56;;;;;;;2.92;2.58;;;8.00;99.90;;;;;;6126992;23;20425;-83
2022/02/09 07:31:23;;;;;;;3.08;2.28;;;8.00;99.90;;;;;;6126835;23;20148;-84
2022/02/09 07:33:49;;;;;;;2.90;2.60;;;8.00;99.90;;;;;;6151341;23;20493;-83
2022/02/09 07:36:16;;;;;;;2.10;1.80;;;8.00;99.90;;;;;;6126514;23;20009;-84
2022/02/09 07:38:42;;;;;;;2.85;2.42;;;7.90;99.90;;;;;;6126276;23;20084;-84
2022/02/09 07:41:08;;;;;;;3.80;2.45;;;8.00;99.90;;;;;;6125983;23;20033;-84
2022/02/09 07:44:33;;;;;;;2.88;2.42;;;8.00;99.90;;;;;;6150658;23;20013;-83
2022/02/09 07:46:38;;;;;;;2.70;1.85;;;8.00;99.90;;;;;;6141445;23;20020;-85
2022/02/09 07:49:22;;;;;;;3.35;2.17;;;8.00;99.90;;;;;;6152710;23;20009;-84
2022/02/09 07:52:07;;;;;;;3.65;2.55;;;8.00;99.90;;;;;;6152921;23;20316;-84
2022/02/09 07:54:33;;;;;;;3.40;2.00;;;8.00;99.90;;;;;;6152679;23;20013;-84
2022/02/09 07:56:58;;;;;;;3.75;3.20;;;8.00;99.90;;;;;;6153009;23;20350;-85
2022/02/09 07:59:24;;;;;;;3.20;2.67;;;8.00;99.90;;;;;;6153792;23;20423;-85
2022/02/09 08:01:51;;;;;;;3.78;3.10;;;8.00;99.90;;;;;;6152550;23;20017;-86
2022/02/09 08:04:17;;;;;;;4.85;3.22;;;8.00;99.90;;;;;;6154014;23;20021;-85
2022/02/09 08:06:45;;;;;;;4.53;2.83;;;8.00;99.90;;;;;;6154683;23;20005;-84
2022/02/09 08:09:18;;;;;;;4.28;3.40;;;8.00;99.90;;;;;;6128500;23;20017;-84
2022/02/09 08:11:59;;;;;;;3.33;2.20;;;8.00;99.90;;;;;;6154618;23;20002;-85
2022/02/09 08:26:13;;;;;;;3.13;2.15;;;8.00;99.90;;;;;;6128563;23;20024;-84
2022/02/09 08:28:33;;;;;;;3.08;2.75;;;8.00;99.90;;;;;;6128218;23;20012;-85
2022/02/09 08:31:59;;;;;;;3.45;2.75;;;8.00;99.90;;;;;;6128914;23;20043;-85
2022/02/09 08:33:46;;;;;;;3.78;3.13;;;8.00;99.90;;;;;;6111877;23;20048;-85
2022/02/09 08:36:13;;;;;;;3.97;2.75;;;8.00;99.90;;;;;;6103693;23;20054;-83
2022/02/09 08:38:42;;;;;;;4.82;3.50;;;8.00;99.90;;;;;;6102693;23;20036;-83
2022/02/09 08:41:08;;;;;;;5.13;3.42;;;8.00;99.90;;;;;;6104131;23;20005;-85
2022/02/09 08:43:33;;;;;;;4.40;3.20;;;8.00;99.90;;;;;;6127849;23;20061;-84
2022/02/09 08:45:59;;;;;;;3.40;2.80;;;8.00;99.90;;;;;;6154490;23;20009;-85
2022/02/09 08:48:24;;;;;;;3.13;2.17;;;8.00;99.90;;;;;;6102714;23;20068;-83
2022/02/09 08:50:52;;;;;;;4.18;3.05;;;8.00;99.90;;;;;;6103755;23;20056;-86
2022/02/09 08:53:19;;;;;;;3.83;2.42;;;8.00;99.90;;;;;;6127788;23;20092;-84
2022/02/09 08:55:46;;;;;;;4.28;3.13;;;8.10;99.90;;;;;;6103448;23;20002;-84
2022/02/09 08:58:15;;;;;;;5.82;3.80;;;8.10;99.90;;;;;;6128021;23;20071;-84
2022/02/09 09:00:40;;;;;;;5.20;4.15;;;8.10;99.90;;;;;;6127076;23;20032;-84
2022/02/09 09:03:16;;;;;;;7.20;4.55;;;8.10;99.90;;;;;;6128300;23;20092;-85
2022/02/09 09:05:48;;;;;;;4.97;4.10;;;8.10;99.90;;;;;;6103467;23;20021;-84
2022/02/09 10:01:17;;;;;;;4.85;4.00;;;8.50;99.90;;;;;;6150982;23;20041;-84
2022/02/09 10:34:24;;;;;;;5.18;4.25;;;8.80;99.90;;;;;;6153797;23;20001;-84
2022/02/09 10:37:02;;;;;;;7.18;5.45;;;8.80;99.90;;;;;;6126731;23;20450;-86
2022/02/09 10:40:02;;;;;;;6.47;4.97;;;8.80;99.90;;;;;;6152020;23;20005;-85
2022/02/09 10:42:45;;;;;;;6.10;4.53;;;8.80;99.90;;;;;;6126432;23;20456;-84
2022/02/09 10:45:31;;;;;;;5.43;4.35;;;8.90;99.90;;;;;;6127154;23;20029;-85
2022/02/09 10:47:58;;;;;;;7.70;5.75;;;8.90;99.90;;;;;;6127187;23;20017;-87
2022/02/09 10:52:52;;;;;;;6.78;5.38;;;8.90;99.90;;;;;;6151785;23;20083;-84
2022/02/09 10:55:34;;;;;;;4.93;3.97;;;8.90;99.90;;;;;;6127419;23;20330;-85
2022/02/09 10:58:02;;;;;;;5.05;3.63;;;8.90;99.90;;;;;;6126744;23;20016;-92
2022/02/09 11:00:28;;;;;;;7.72;5.80;;;8.90;99.90;;;;;;6126747;23;20350;-85
2022/02/09 11:02:54;;;;;;;6.88;5.20;;;8.90;99.90;;;;;;6151656;23;20072;-88
2022/02/09 11:05:20;;;;;;;5.32;4.60;;;9.00;99.90;;;;;;6126904;23;20383;-85
2022/02/09 11:07:47;;;;;;;7.13;5.07;;;9.00;99.90;;;;;;6126690;23;20439;-89
2022/02/09 11:10:13;;;;;;;5.55;4.78;;;9.00;99.90;;;;;;6126991;23;20096;-85
2022/02/09 11:12:41;;;;;;;4.07;3.20;;;9.00;99.90;;;;;;6126586;23;20033;-86
2022/02/09 11:15:09;;;;;;;6.57;5.03;;;9.10;99.90;;;;;;6151628;23;20089;-85
2022/02/09 11:17:36;;;;;;;6.55;4.40;;;9.00;99.90;;;;;;6151470;23;20096;-87
2022/02/09 11:20:03;;;;;;;4.75;3.95;;;9.10;99.90;;;;;;6152031;23;20531;-87
2022/02/09 11:22:40;;;;;;;5.88;5.00;;;9.20;99.90;;;;;;6102517;23;20092;-86
2022/02/09 11:25:18;;;;;;;5.88;5.13;;;9.20;99.90;;;;;;6127751;23;20108;-87
2022/02/09 11:27:52;;;;;;;5.70;4.82;;;9.10;99.90;;;;;;6151384;23;20088;-88
2022/02/09 11:33:08;;;;;;;6.55;5.57;;;9.20;99.90;;;;;;6152031;23;20064;-87
2022/02/09 11:35:41;;;;;;;5.55;4.93;;;9.20;99.90;;;;;;6127461;23;20010;-91
2022/02/09 11:38:19;;;;;;;4.68;3.65;;;9.30;99.90;;;;;;6127301;23;20494;-88
2022/02/09 11:40:54;;;;;;;5.18;4.25;;;9.30;99.90;;;;;;6151507;23;20013;-88
2022/02/09 11:55:14;;;;;;;;;;;9.50;99.90;;;;;;6152546;23;20434;-87
2022/02/09 12:09:35;;;;;;;4.55;3.47;;;9.80;99.90;;;;;;6091893;23;20013;-87
2022/02/09 12:12:09;;;;;;;3.80;2.85;;;9.80;99.90;;;;;;6067881;23;20021;-87
2022/02/09 12:17:35;;;;;;;6.35;4.57;;;9.70;99.90;;;;;;6067653;23;20011;-87
2022/02/09 12:20:16;;;;;;;5.72;3.85;;;9.60;99.90;;;;;;6091534;23;20014;-91
2022/02/09 12:23:02;;;;;;;5.57;4.60;;;9.60;99.90;;;;;;6043103;23;20006;-90
2022/02/09 12:25:49;;;;;;;6.35;5.65;;;9.50;99.90;;;;;;6043308;23;20030;-89
2022/02/09 12:28:20;;;;;;;5.43;4.93;;;9.60;99.90;;;;;;6043593;23;20011;-88
2022/02/09 12:30:46;;;;;;;4.88;4.30;;;9.50;99.90;;;;;;6044633;23;20011;-88
2022/02/09 12:33:23;;;;;;;4.75;2.92;;;9.50;99.90;;;;;;6045450;23;20006;-87
2022/02/09 12:35:49;;;;;;;4.55;3.67;;;9.50;99.90;;;;;;6045305;23;20030;-87
2022/02/09 12:38:25;;;;;;;4.00;3.50;;;9.50;99.90;;;;;;6045455;23;20006;-86
2022/02/09 12:41:10;;;;;;;3.08;2.38;;;9.50;99.90;;;;;;6128823;23;20021;-86
2022/02/09 12:43:54;;;;;;;4.32;3.65;;;9.50;99.90;;;;;;6128489;23;20044;-87
2022/02/09 12:46:24;;;;;;;5.63;4.57;;;9.50;99.90;;;;;;6155107;23;20053;-88
2022/02/09 12:48:51;;;;;;;6.70;5.10;;;9.40;99.90;;;;;;6153056;23;20005;-89
2022/02/09 12:51:22;;;;;;;7.13;5.88;;;9.50;99.90;;;;;;6153372;23;20012;-91
2022/02/09 12:53:48;;;;;;;7.93;6.00;;;9.50;99.90;;;;;;6127916;23;20010;-90
2022/02/09 12:56:30;;;;;;;8.05;5.65;;;9.50;99.90;;;;;;6153642;23;20010;-89
2022/02/09 12:59:22;;;;;;;7.68;6.63;;;9.50;99.90;;;;;;6129242;23;20009;-88
2022/02/09 13:01:55;;;;;;;7.13;6.05;;;9.50;99.90;;;;;;6124082;23;20145;-89
2022/02/09 13:04:38;;;;;;;9.38;6.57;;;9.60;99.90;;;;;;6128398;23;20052;-92
2022/02/09 13:07:12;;;;;;;9.40;6.43;;;9.60;99.90;;;;;;6128480;23;20509;-87
2022/02/09 13:09:39;;;;;;;6.53;5.40;;;9.50;99.90;;;;;;6154243;23;20010;-87
2022/02/09 13:12:06;;;;;;;8.68;4.97;;;9.50;99.90;;;;;;6153148;23;20390;-88
2022/02/09 13:14:39;;;;;;;7.15;5.85;;;9.50;99.90;;;;;;6128485;23;20013;-88
2022/02/09 13:20:52;;;;;;;7.53;6.22;;;9.60;99.90;;;;;;6152898;23;20394;-90
2022/02/09 14:10:39;;;;;;;5.25;4.28;;;9.20;99.90;;;;;;6068108;23;20014;-88
2022/02/09 14:13:15;;;;;;;5.72;4.60;;;9.20;99.90;;;;;;6092080;23;20010;-87
2022/02/09 14:18:43;;;;;;;8.98;6.80;;;9.20;99.90;;;;;;6068379;23;20011;-88
2022/02/09 14:31:35;;;;;;;8.07;5.80;;;9.20;99.90;;;;;;6125985;23;20017;-88
2022/02/09 14:51:20;;;;;;;9.20;8.18;;;9.20;99.90;;;;;;6127921;23;20024;-86
2022/02/09 14:56:15;;;;;;;7.10;6.40;;;9.20;99.90;;;;;;6152952;23;20013;-86
2022/02/09 14:58:44;;;;;;;9.65;8.43;;;9.20;99.90;;;;;;6129975;23;20091;-85
2022/02/09 15:04:05;;;;;;;8.27;7.30;;;9.20;99.90;;;;;;6148820;23;20009;-88
2022/02/09 15:09:17;;;;;;;5.90;5.18;;;9.30;99.90;;;;;;6151534;23;20093;-87
2022/02/09 15:11:55;;;;;;;6.38;5.43;;;9.20;99.90;;;;;;6150408;23;20029;-88
2022/02/09 15:14:31;;;;;;;6.78;5.10;;;9.30;99.90;;;;;;6126165;23;20020;-87
2022/02/09 15:17:22;;;;;;;9.35;6.20;;;9.30;99.90;;;;;;6126715;23;20378;-87
2022/02/09 15:22:39;;;;;;;7.15;6.43;;;9.40;99.90;;;;;;6152996;23;20016;-88
2022/02/09 15:25:14;;;;;;;9.18;8.15;;;9.40;99.90;;;;;;6126864;23;20014;-87
2022/02/09 15:27:39;;;;;;;7.30;6.38;;;9.40;99.90;;;;;;6151038;23;20473;-89
2022/02/09 15:30:09;;;;;;;7.60;5.93;;;9.40;99.90;;;;;;6126676;23;20013;-88
2022/02/09 15:32:39;;;;;;;5.47;4.45;;;9.40;99.90;;;;;;6150229;23;20374;-88
2022/02/09 15:35:18;;;;;;;4.47;4.07;;;9.40;99.90;;;;;;6126951;23;20099;-88
2022/02/09 15:37:53;;;;;;;4.57;3.65;;;9.40;99.90;;;;;;6126666;23;20430;-88
2022/02/09 15:40:34;;;;;;;4.95;3.83;;;9.40;99.90;;;;;;6126827;23;20009;-88
2022/02/09 15:56:46;;;;;;;5.55;4.00;;;9.30;99.90;;;;;;6150872;23;20100;-92
2022/02/09 16:16:37;;;;;;;5.25;4.20;;;9.30;99.90;;;;;;6154582;23;20006;-86
2022/02/09 16:23:43;;;;;;;3.80;2.22;;;9.20;99.90;;;;;;6129499;23;20072;-88
2022/02/09 16:45:03;;;;;;;8.65;7.07;;;9.10;99.90;;;;;;6153069;23;20463;-86
2022/02/09 16:47:52;;;;;;;10.25;7.85;;;9.20;99.90;;;;;;6153121;23;20005;-86
2022/02/09 16:50:24;;;;;;;12.23;9.70;;;9.20;99.90;;;;;;6128906;23;20009;-86
2022/02/09 16:52:58;;;;;;;10.23;8.32;;;9.20;99.90;;;;;;6128086;23;20006;-86
2022/02/09 17:20:07;;;;;;;10.65;8.65;;;8.90;99.90;;;;;;6069180;23;20066;-87
2022/02/09 17:22:33;;;;;;;13.38;10.95;;;8.80;99.90;;;;;;6092532;23;20049;-86
2022/02/09 17:24:58;;;;;;;11.60;8.63;;;8.80;99.90;;;;;;6069114;23;20022;-86
2022/02/09 17:27:28;;;;;;;10.07;8.38;;;8.80;99.90;;;;;;6045076;23;20002;-86
2022/02/09 17:32:48;;;;;;;9.45;7.28;;;8.70;99.90;;;;;;6068978;23;20089;-86
2022/02/09 17:35:23;;;;;;;9.23;7.35;;;8.70;99.90;;;;;;6093044;23;20033;-87
2022/02/09 17:38:15;;;;;;;9.63;7.13;;;8.70;99.90;;;;;;6044510;23;20010;-87
2022/02/09 17:56:49;;;;;;;9.65;7.57;;;8.70;99.90;;;;;;6151230;23;20117;-86
2022/02/09 17:59:20;;;;;;;7.90;6.53;;;8.60;99.90;;;;;;6127037;23;20012;-85
2022/02/09 18:01:47;;;;;;;10.85;9.07;;;8.60;99.90;;;;;;6126775;23;20488;-84
2022/02/09 18:04:13;;;;;;;10.73;8.88;;;8.60;99.90;;;;;;6151570;23;20020;-85
2022/02/09 18:06:45;;;;;;;13.38;10.65;;;8.60;99.90;;;;;;6125719;23;20382;-85
2022/02/09 18:09:15;;;;;;;9.85;7.68;;;8.60;99.90;;;;;;6152444;23;20454;-85
2022/02/09 18:12:10;;;;;;;8.88;6.63;;;8.60;99.90;;;;;;6153307;23;20021;-84
2022/02/09 18:26:34;;;;;;;9.90;7.90;;;8.70;99.90;;;;;;6151279;23;20017;-85
2022/02/09 18:31:11;;;;;;;10.07;8.32;;;8.60;99.90;;;;;;6151366;23;20068;-85
2022/02/09 18:33:52;;;;;;;7.80;6.43;;;8.60;99.90;;;;;;6126913;23;20018;-86
2022/02/09 18:45:01;;;;;;;6.68;5.35;;;8.60;99.90;;;;;;6117567;23;20063;-86
2022/02/09 19:03:39;;;;;;;6.75;5.07;;;8.50;99.90;;;;;;6128977;23;20017;-86
2022/02/09 19:06:18;;;;;;;8.85;7.30;;;8.50;99.90;;;;;;6126803;23;20447;-86
2022/02/09 19:48:59;;;;;;;8.45;6.25;;;8.50;99.90;;;;;;6153393;23;20032;-86
2022/02/09 19:51:41;;;;;;;13.57;8.25;;;8.40;99.90;;;;;;6131135;23;20076;-86
2022/02/09 19:54:26;;;;;;;15.73;10.35;;;8.50;99.90;;;;;;6129132;23;20013;-87
2022/02/09 19:56:59;;;;;;;11.50;8.93;;;8.40;99.90;;;;;;6155651;23;20008;-86
2022/02/09 19:59:25;;;;;;;16.80;11.85;;;8.40;99.90;;;;;;6154389;23;20018;-86
2022/02/09 20:01:53;;;;;;;17.88;12.88;;;8.40;99.90;;;;;;6104903;23;20014;-86
2022/02/09 20:04:19;;;;;;;13.25;10.70;;;8.40;99.90;;;;;;6154153;23;20041;-86
2022/02/09 20:06:46;;;;;;;11.13;8.23;;;8.40;99.90;;;;;;6154004;23;20074;-86
2022/02/09 20:09:11;;;;;;;11.45;8.60;;;8.40;99.90;;;;;;6129257;23;20446;-86
2022/02/09 20:11:41;;;;;;;14.13;10.02;;;8.40;99.90;;;;;;6129028;23;20017;-86
2022/02/09 20:14:07;;;;;;;12.77;9.48;;;8.40;99.90;;;;;;6129453;23;20017;-87
2022/02/09 20:16:33;;;;;;;13.80;9.85;;;8.40;99.90;;;;;;6129351;23;20016;-87
2022/02/09 20:18:59;;;;;;;12.85;8.15;;;8.30;99.90;;;;;;6129203;23;20088;-86
2022/02/09 20:21:27;;;;;;;11.88;9.05;;;8.30;99.90;;;;;;6128943;23;20431;-87
2022/02/09 20:23:53;;;;;;;11.60;8.43;;;8.20;99.90;;;;;;6128478;23;20013;-87
2022/02/09 20:26:23;;;;;;;10.40;7.30;;;8.20;99.90;;;;;;6129483;23;20044;-87
2022/02/09 20:29:03;;;;;;;11.00;8.63;;;8.20;99.90;;;;;;6129277;23;20435;-87
2022/02/09 20:31:33;;;;;;;12.13;7.63;;;8.10;99.90;;;;;;6153999;23;20081;-86
2022/02/09 20:34:06;;;;;;;12.63;8.00;;;8.00;99.90;;;;;;6128840;23;20013;-86
2022/02/09 20:36:33;;;;;;;11.52;8.43;;;7.90;99.90;;;;;;6128720;23;20092;-86
2022/02/09 20:39:02;;;;;;;9.73;6.75;;;7.90;99.90;;;;;;6128568;23;20017;-86
2022/02/09 20:41:27;;;;;;;8.98;5.90;;;7.90;99.90;;;;;;6127443;23;20440;-86
2022/02/09 20:46:45;;;;;;;12.45;9.02;;;8.00;99.90;;;;;;6118984;23;20005;-87
2022/02/09 20:49:11;;;;;;;11.48;7.80;;;8.00;99.90;;;;;;6128519;23;20384;-87
2022/02/09 20:51:36;;;;;;;11.85;7.78;;;8.00;99.90;;;;;;6129324;23;20517;-87
2022/02/09 20:54:02;;;;;;;11.43;8.10;;;8.00;99.90;;;;;;6151287;23;20032;-88
2022/02/09 20:56:28;;;;;;;11.35;8.35;;;8.00;99.90;;;;;;6153654;23;20036;-87
2022/02/09 20:59:00;;;;;;;11.43;7.88;;;8.00;99.90;;;;;;6127911;23;20012;-86
2022/02/09 21:01:48;;;;;;;11.43;7.53;;;8.00;99.90;;;;;;6125395;23;20037;-87
2022/02/09 21:04:17;;;;;;;11.75;7.85;;;8.00;99.90;;;;;;6127361;23;20088;-86
2022/02/09 21:07:04;;;;;;;11.13;7.57;;;8.00;99.90;;;;;;6151709;23;20316;-87
2022/02/09 21:09:47;;;;;;;11.60;7.30;;;8.00;99.90;;;;;;6152162;23;20362;-87
2022/02/09 21:18:00;;;;;;;10.93;7.80;;;8.00;99.90;;;;;;6153147;23;20462;-87
2022/02/09 21:44:46;;;;;;;13.70;8.52;;;8.00;99.90;;;;;;6064130;23;20460;-83
2022/02/09 21:55:38;;;;;;;11.98;8.45;;;8.00;99.90;;;;;;6064407;23;20085;-84
2022/02/09 21:58:08;;;;;;;13.97;9.83;;;8.00;99.90;;;;;;6016471;23;20433;-83
2022/02/09 22:01:01;;;;;;;13.13;9.00;;;7.90;99.90;;;;;;6015384;23;20266;-84
2022/02/09 22:16:21;;;;;;;12.98;8.60;;;8.00;99.90;;;;;;6097493;23;20547;-84
2022/02/09 22:20:24;;;;;;;12.57;9.00;;;8.00;99.90;;;;;;6127240;23;20013;-84
2022/02/09 22:28:04;;;;;;;13.68;9.68;;;7.90;99.90;;;;;;6128093;23;20005;-83
2022/02/09 22:31:09;;;;;;;13.73;9.50;;;7.90;99.90;;;;;;6127632;23;20497;-84
2022/02/09 22:54:47;;;;;;;11.52;8.30;;;7.80;99.90;;;;;;6127324;23;20373;-83
2022/02/09 22:57:14;;;;;;;15.27;9.30;;;7.80;99.90;;;;;;6103650;23;20458;-84
2022/02/09 22:59:48;;;;;;;14.38;8.88;;;7.80;99.90;;;;;;6127457;23;20009;-84
2022/02/09 23:02:25;;;;;;;13.07;9.52;;;7.90;99.90;;;;;;6127203;23;20005;-84
2022/02/09 23:05:27;;;;;;;13.50;9.13;;;7.90;99.90;;;;;;6102477;23;20021;-84
2022/02/09 23:10:53;;;;;;;17.27;11.40;;;8.00;99.90;;;;;;6153340;23;20025;-83
2022/02/09 23:13:24;;;;;;;17.90;11.52;;;8.00;99.90;;;;;;6107058;23;20343;-83
2022/02/09 23:54:06;;;;;;;17.95;11.10;;;8.10;99.90;;;;;;6152600;23;20010;-84
